METAR Data
IDs: Format: Raw Decoded Include TAF

Data at: 1043 UTC 28 Sep 2021

UUWW 281030Z 08004MPS 9999 BKN030 08/03 Q1030 R06/000065 NOSIG